Time;durP1;ratioP1;P1;durP2;ratioP2;P2;SDS_P1;SDS_P2;PMS_P1;PMS_P2;Temp;Humidity;BMP_temperature;BMP_pressure;BME280_temperature;BME280_humidity;BME280_pressure;Samples;Min_cycle;Max_cycle;Signal;HPM_P1;HPM_P2
2020/12/03 00:00:35;;;;;;;27.98;15.35;;;0.10;99.90;;;;;;5059130;28;20221;-77
2020/12/03 00:03:05;;;;;;;23.90;13.65;;;0.10;99.90;;;;;;5059415;28;20229;-75
2020/12/03 00:05:31;;;;;;;29.75;14.70;;;0.00;99.90;;;;;;5059879;28;20213;-77
2020/12/03 00:07:58;;;;;;;30.08;16.90;;;0.00;99.90;;;;;;5052922;28;20200;-78
2020/12/03 00:10:26;;;;;;;30.92;15.52;;;0.10;99.90;;;;;;5043339;28;20194;-77
2020/12/03 00:13:02;;;;;;;28.90;16.30;;;0.20;99.90;;;;;;5046644;28;20217;-77
2020/12/03 00:15:28;;;;;;;23.45;13.85;;;0.20;99.90;;;;;;5045390;28;20204;-77
2020/12/03 00:17:54;;;;;;;26.40;14.95;;;0.20;99.90;;;;;;5043925;28;20197;-78
2020/12/03 00:20:21;;;;;;;25.00;14.57;;;0.20;99.90;;;;;;5045933;28;20255;-77
2020/12/03 00:22:47;;;;;;;31.23;16.50;;;0.20;99.90;;;;;;5046055;28;20244;-78
2020/12/03 00:25:14;;;;;;;28.08;16.20;;;0.20;99.90;;;;;;5039412;28;20212;-78
2020/12/03 00:27:48;;;;;;;30.75;15.57;;;0.20;99.90;;;;;;5038451;28;20204;-78
2020/12/03 00:30:14;;;;;;;28.88;15.68;;;0.20;99.90;;;;;;5038661;28;20228;-77
2020/12/03 00:32:40;;;;;;;28.58;15.00;;;0.30;99.90;;;;;;5037545;28;20229;-77
2020/12/03 00:35:06;;;;;;;25.05;15.35;;;0.20;99.90;;;;;;5039667;28;20629;-78
2020/12/03 00:37:33;;;;;;;26.42;14.68;;;0.20;99.90;;;;;;5039791;28;20209;-79
2020/12/03 00:39:59;;;;;;;25.58;15.45;;;0.20;99.90;;;;;;5038092;28;20234;-77
2020/12/03 00:42:26;;;;;;;33.38;17.20;;;0.20;99.90;;;;;;5038591;28;20226;-78
2020/12/03 00:44:53;;;;;;;27.40;16.10;;;0.20;99.90;;;;;;5039952;28;20201;-77
2020/12/03 00:47:19;;;;;;;27.35;16.50;;;0.20;99.90;;;;;;5039850;28;20202;-77
2020/12/03 00:49:45;;;;;;;32.35;15.55;;;0.20;99.90;;;;;;5039356;28;20202;-77
2020/12/03 00:52:11;;;;;;;27.92;15.55;;;0.20;99.90;;;;;;5038007;28;20226;-78
2020/12/03 00:54:37;;;;;;;31.48;16.15;;;0.20;99.90;;;;;;5039495;28;20198;-77
2020/12/03 00:57:07;;;;;;;30.58;17.02;;;0.30;99.90;;;;;;5040043;28;20206;-78
2020/12/03 00:59:36;;;;;;;29.65;16.25;;;0.30;99.90;;;;;;5039179;28;20264;-76
2020/12/03 01:02:04;;;;;;;29.52;16.63;;;0.30;99.90;;;;;;5038446;28;20237;-78
2020/12/03 01:04:30;;;;;;;30.80;18.17;;;0.30;99.90;;;;;;5038595;28;20218;-77
2020/12/03 01:06:56;;;;;;;33.67;18.48;;;0.30;99.90;;;;;;5038102;28;20202;-77
2020/12/03 01:09:23;;;;;;;26.48;16.08;;;0.30;99.90;;;;;;5040896;28;20204;-78
2020/12/03 01:11:49;;;;;;;33.53;17.35;;;0.30;99.90;;;;;;5043073;28;20225;-77
2020/12/03 01:14:15;;;;;;;31.88;17.02;;;0.20;99.90;;;;;;5043389;28;20229;-77
2020/12/03 01:16:43;;;;;;;27.48;15.30;;;0.20;99.90;;;;;;5043352;28;20214;-77
2020/12/03 01:19:09;;;;;;;31.50;17.02;;;0.30;99.90;;;;;;5042891;28;20209;-78
2020/12/03 01:21:35;;;;;;;32.70;18.10;;;0.30;99.90;;;;;;5043400;28;20237;-77
2020/12/03 01:24:02;;;;;;;30.85;17.48;;;0.30;99.90;;;;;;5043215;28;20205;-76
2020/12/03 01:26:28;;;;;;;27.92;15.70;;;0.30;99.90;;;;;;5040483;28;20209;-79
2020/12/03 01:28:54;;;;;;;33.20;17.48;;;0.30;99.90;;;;;;5047561;28;20202;-78
2020/12/03 01:31:20;;;;;;;38.28;17.38;;;0.30;99.90;;;;;;5048528;28;20209;-78
2020/12/03 01:33:47;;;;;;;32.30;17.55;;;0.40;99.90;;;;;;5047803;28;20209;-79
2020/12/03 01:36:14;;;;;;;31.52;17.00;;;0.40;99.90;;;;;;5048904;28;20212;-79
2020/12/03 01:38:41;;;;;;;32.55;17.45;;;0.40;99.90;;;;;;5047797;28;20205;-78
2020/12/03 01:41:07;;;;;;;32.70;17.27;;;0.40;99.90;;;;;;5048562;28;20222;-78
2020/12/03 01:43:33;;;;;;;30.17;17.05;;;0.30;99.90;;;;;;5048063;28;20202;-79
2020/12/03 01:46:01;;;;;;;28.90;16.52;;;0.40;99.90;;;;;;5048500;28;20209;-79
2020/12/03 01:48:35;;;;;;;33.15;19.65;;;0.40;99.90;;;;;;5048523;28;20216;-78
2020/12/03 01:51:04;;;;;;;33.00;17.42;;;0.40;99.90;;;;;;5047106;28;20198;-77
2020/12/03 01:53:31;;;;;;;34.65;17.02;;;0.40;99.90;;;;;;5047400;28;20253;-79
2020/12/03 01:55:57;;;;;;;27.88;16.80;;;0.40;99.90;;;;;;5047083;28;20205;-78
2020/12/03 01:58:33;;;;;;;30.15;17.23;;;0.40;99.90;;;;;;5042657;28;20224;-77
2020/12/03 02:01:01;;;;;;;26.90;16.17;;;0.30;99.90;;;;;;5035118;28;20228;-76
2020/12/03 02:03:28;;;;;;;30.50;16.08;;;0.40;99.90;;;;;;5032496;28;20832;-77
2020/12/03 02:05:54;;;;;;;31.98;17.10;;;0.40;99.90;;;;;;5034221;28;20665;-76
2020/12/03 02:08:21;;;;;;;27.48;16.83;;;0.40;99.90;;;;;;5036659;28;20205;-77
2020/12/03 02:10:47;;;;;;;33.50;17.98;;;0.40;99.90;;;;;;5038298;28;20217;-78
2020/12/03 02:13:13;;;;;;;32.03;17.63;;;0.40;99.90;;;;;;5038444;28;20229;-77
2020/12/03 02:15:40;;;;;;;32.50;17.27;;;0.40;99.90;;;;;;5040116;28;20584;-77
2020/12/03 02:18:07;;;;;;;29.65;18.25;;;0.50;99.90;;;;;;5040133;28;20202;-78
2020/12/03 02:20:34;;;;;;;34.90;17.35;;;0.50;99.90;;;;;;5038627;28;20229;-77
2020/12/03 02:23:08;;;;;;;26.20;16.60;;;0.30;99.90;;;;;;5039069;28;20230;-77
2020/12/03 02:25:34;;;;;;;28.67;16.02;;;0.30;99.90;;;;;;5040559;28;20212;-77
2020/12/03 02:28:00;;;;;;;27.35;16.58;;;0.30;99.90;;;;;;5039305;28;20208;-78
2020/12/03 02:30:26;;;;;;;31.65;18.73;;;0.30;99.90;;;;;;5039604;28;20194;-77
2020/12/03 02:32:52;;;;;;;33.08;18.35;;;0.30;99.90;;;;;;5039331;28;20222;-76
2020/12/03 02:35:19;;;;;;;30.15;17.08;;;0.30;99.90;;;;;;5040368;28;20228;-77
2020/12/03 02:37:46;;;;;;;32.90;18.15;;;0.30;99.90;;;;;;5039747;28;20236;-77
2020/12/03 02:40:12;;;;;;;30.25;18.98;;;0.30;99.90;;;;;;5040097;28;20586;-77
2020/12/03 02:42:38;;;;;;;32.15;17.80;;;0.30;99.90;;;;;;5039806;28;20232;-76
2020/12/03 02:45:06;;;;;;;32.13;17.38;;;0.30;99.90;;;;;;5042690;28;20206;-78
2020/12/03 02:47:33;;;;;;;28.38;17.40;;;0.20;99.90;;;;;;5042254;28;20685;-77
2020/12/03 02:49:59;;;;;;;26.98;16.15;;;0.20;99.90;;;;;;5043563;28;20198;-77
2020/12/03 02:52:26;;;;;;;31.73;16.42;;;0.20;99.90;;;;;;5042522;28;20262;-77
2020/12/03 02:54:53;;;;;;;32.33;17.77;;;0.20;99.90;;;;;;5042396;28;20205;-77
2020/12/03 02:57:21;;;;;;;31.10;17.77;;;0.20;99.90;;;;;;5043528;28;20674;-78
2020/12/03 02:59:47;;;;;;;34.42;17.80;;;0.10;99.90;;;;;;5041552;28;20210;-78
2020/12/03 03:02:14;;;;;;;33.78;17.77;;;0.10;99.90;;;;;;5041306;28;20240;-78
2020/12/03 03:04:40;;;;;;;29.30;17.65;;;0.10;99.90;;;;;;5041308;28;20206;-77
2020/12/03 03:07:06;;;;;;;35.10;18.52;;;0.10;99.90;;;;;;5043067;28;20492;-78
2020/12/03 03:09:33;;;;;;;33.60;18.40;;;0.00;99.90;;;;;;5043176;28;20216;-78
2020/12/03 03:12:01;;;;;;;34.55;18.70;;;0.00;99.90;;;;;;5041492;28;20226;-76
2020/12/03 03:14:27;;;;;;;29.48;17.48;;;0.00;99.90;;;;;;5042243;28;20233;-78
2020/12/03 03:16:54;;;;;;;37.22;18.13;;;0.00;99.90;;;;;;5041940;28;20212;-76
2020/12/03 03:19:20;;;;;;;33.63;19.45;;;0.00;99.90;;;;;;5042607;28;20224;-77
2020/12/03 03:21:46;;;;;;;34.92;19.25;;;-0.10;99.90;;;;;;5039810;28;20229;-77
2020/12/03 03:24:14;;;;;;;35.00;18.55;;;-0.10;99.90;;;;;;5040630;28;20289;-78
2020/12/03 03:26:40;;;;;;;35.38;18.48;;;-0.20;99.90;;;;;;5041958;28;20207;-78
2020/12/03 03:29:08;;;;;;;36.00;18.40;;;-0.20;99.90;;;;;;5042934;28;20224;-78
2020/12/03 03:31:35;;;;;;;32.65;19.05;;;-0.10;99.90;;;;;;5042232;28;20241;-77
2020/12/03 03:34:01;;;;;;;35.13;18.15;;;-0.20;99.90;;;;;;5041185;28;20224;-78
2020/12/03 03:36:29;;;;;;;43.10;20.00;;;-0.20;99.90;;;;;;5042322;28;20262;-79
2020/12/03 03:38:55;;;;;;;32.60;19.05;;;-0.30;99.90;;;;;;5041979;28;20206;-78
2020/12/03 03:41:21;;;;;;;32.47;18.38;;;-0.20;99.90;;;;;;5041497;28;20233;-78
2020/12/03 03:43:47;;;;;;;33.13;18.50;;;-0.30;99.90;;;;;;5039454;28;20597;-78
2020/12/03 03:46:14;;;;;;;30.15;18.20;;;-0.30;99.90;;;;;;5038924;28;20209;-77
2020/12/03 03:48:40;;;;;;;29.70;17.60;;;-0.20;99.90;;;;;;5040290;28;20208;-78
2020/12/03 03:51:07;;;;;;;33.13;18.08;;;-0.20;99.90;;;;;;5040950;28;20201;-78
2020/12/03 03:53:34;;;;;;;40.28;20.35;;;-0.20;99.90;;;;;;5041252;28;20248;-78
2020/12/03 03:56:00;;;;;;;38.88;19.77;;;-0.30;99.90;;;;;;5042307;28;20205;-77
2020/12/03 03:58:27;;;;;;;32.25;18.23;;;-0.20;99.90;;;;;;5041412;28;20198;-77
2020/12/03 04:00:53;;;;;;;37.42;18.10;;;-0.20;99.90;;;;;;5040716;28;20613;-78
2020/12/03 04:03:22;;;;;;;32.60;17.85;;;-0.20;99.90;;;;;;5040175;28;20225;-78
2020/12/03 04:05:51;;;;;;;34.63;19.90;;;-0.30;99.90;;;;;;5037502;28;20206;-77
2020/12/03 04:08:19;;;;;;;35.03;18.83;;;-0.30;99.90;;;;;;5037681;28;20552;-76
2020/12/03 04:10:47;;;;;;;34.05;17.20;;;-0.30;99.90;;;;;;5030706;28;20229;-77
2020/12/03 04:13:13;;;;;;;34.70;19.88;;;-0.30;99.90;;;;;;5034459;28;20232;-78
2020/12/03 04:15:40;;;;;;;33.58;18.70;;;-0.20;99.90;;;;;;5036745;28;20205;-76
2020/12/03 04:18:06;;;;;;;32.35;16.90;;;-0.20;99.90;;;;;;5042753;28;20218;-76
2020/12/03 04:20:34;;;;;;;31.30;17.52;;;-0.20;99.90;;;;;;5045044;28;20225;-79
2020/12/03 04:23:01;;;;;;;31.83;17.48;;;-0.20;99.90;;;;;;5044434;28;20217;-75
2020/12/03 04:25:27;;;;;;;31.15;17.60;;;-0.20;99.90;;;;;;5045586;28;20592;-79
2020/12/03 04:27:53;;;;;;;32.55;19.17;;;-0.20;99.90;;;;;;5045781;28;20213;-77
2020/12/03 04:30:20;;;;;;;32.88;17.42;;;-0.30;99.90;;;;;;5043783;28;20204;-78
2020/12/03 04:32:46;;;;;;;33.13;17.77;;;-0.20;99.90;;;;;;5042268;28;20709;-79
2020/12/03 04:35:17;;;;;;;29.20;17.42;;;-0.20;99.90;;;;;;5042970;28;20197;-78
2020/12/03 04:37:45;;;;;;;29.38;17.45;;;-0.20;99.90;;;;;;5043614;28;20296;-77
2020/12/03 04:40:24;;;;;;;34.72;19.40;;;-0.10;99.90;;;;;;5121443;22;20227;-71
2020/12/03 04:42:51;;;;;;;33.20;18.65;;;-0.10;99.90;;;;;;5064547;28;20220;-71
2020/12/03 04:45:29;;;;;;;25.73;15.48;;;-0.10;99.90;;;;;;5088420;28;20211;-71
2020/12/03 04:48:03;;;;;;;35.42;16.85;;;-0.10;99.90;;;;;;5093006;28;20207;-71
2020/12/03 04:50:42;;;;;;;28.65;16.30;;;-0.10;99.90;;;;;;5093065;28;20199;-71
2020/12/03 04:53:14;;;;;;;29.75;17.13;;;-0.10;99.90;;;;;;5064216;28;20229;-70
2020/12/03 04:55:54;;;;;;;28.88;17.30;;;-0.10;99.90;;;;;;5052606;28;20239;-71
2020/12/03 04:58:35;;;;;;;30.05;15.85;;;0.00;99.90;;;;;;5054570;28;20212;-71
2020/12/03 05:01:12;;;;;;;33.13;17.92;;;0.00;99.90;;;;;;5072187;28;20216;-71
2020/12/03 05:03:59;;;;;;;28.73;15.63;;;0.10;99.90;;;;;;5071503;28;20203;-72
2020/12/03 05:06:48;;;;;;;27.33;15.88;;;0.10;99.90;;;;;;5071000;28;20204;-74
2020/12/03 05:09:21;;;;;;;26.80;16.95;;;0.20;99.90;;;;;;5065046;28;20571;-71
2020/12/03 05:11:53;;;;;;;25.05;16.58;;;0.20;99.90;;;;;;5062612;28;20300;-72
2020/12/03 05:14:33;;;;;;;27.80;16.58;;;0.20;99.90;;;;;;5060903;28;20201;-72
2020/12/03 05:17:16;;;;;;;28.17;15.70;;;0.20;99.90;;;;;;5052537;28;20212;-72
2020/12/03 05:19:47;;;;;;;29.13;14.48;;;0.30;99.90;;;;;;5051749;28;20647;-73
2020/12/03 05:22:18;;;;;;;27.88;15.93;;;0.30;99.90;;;;;;5051624;28;20727;-73
2020/12/03 05:24:45;;;;;;;23.02;13.85;;;0.20;99.90;;;;;;5052096;28;20204;-73
2020/12/03 05:27:20;;;;;;;29.15;15.75;;;0.20;99.90;;;;;;5052522;28;20205;-73
2020/12/03 05:29:47;;;;;;;26.02;15.52;;;0.30;99.90;;;;;;5051502;28;20197;-73
2020/12/03 05:32:14;;;;;;;24.58;14.30;;;0.30;99.90;;;;;;5049093;28;20240;-73
2020/12/03 05:34:41;;;;;;;29.92;14.88;;;0.30;99.90;;;;;;5050136;28;20201;-73
2020/12/03 05:37:14;;;;;;;20.73;13.70;;;0.40;99.90;;;;;;5051659;28;20227;-73
2020/12/03 05:39:42;;;;;;;23.05;13.30;;;0.40;99.90;;;;;;5051450;28;20230;-72
2020/12/03 05:42:11;;;;;;;19.88;13.77;;;0.40;99.90;;;;;;5051738;28;20229;-72
2020/12/03 05:44:40;;;;;;;21.85;15.60;;;0.40;99.90;;;;;;5051473;28;20205;-72
2020/12/03 05:47:21;;;;;;;22.40;14.30;;;0.40;99.90;;;;;;5051600;28;20295;-72
2020/12/03 05:49:49;;;;;;;23.67;13.55;;;0.50;99.90;;;;;;5051319;28;20209;-72
2020/12/03 05:52:18;;;;;;;20.63;12.52;;;0.50;99.90;;;;;;5050621;28;20347;-72
2020/12/03 05:55:03;;;;;;;18.00;13.10;;;0.50;99.90;;;;;;5050238;28;20208;-72
2020/12/03 05:57:33;;;;;;;22.30;12.70;;;0.50;99.90;;;;;;5051289;28;20205;-72
2020/12/03 06:00:19;;;;;;;16.40;11.32;;;0.50;99.90;;;;;;5050893;28;20212;-72
2020/12/03 06:02:58;;;;;;;18.25;12.00;;;0.40;99.90;;;;;;5050383;28;20327;-72
2020/12/03 06:05:30;;;;;;;18.40;11.52;;;0.50;99.90;;;;;;5051070;28;20204;-72
2020/12/03 06:08:27;;;;;;;18.52;13.10;;;0.50;99.90;;;;;;5051013;28;20208;-72
2020/12/03 06:11:05;;;;;;;19.80;12.52;;;0.60;99.90;;;;;;5050756;28;20194;-72
2020/12/03 06:13:48;;;;;;;17.55;11.77;;;0.60;99.90;;;;;;5050330;28;20220;-73
2020/12/03 06:16:26;;;;;;;18.83;12.70;;;0.60;99.90;;;;;;5050836;28;20224;-72
2020/12/03 06:19:02;;;;;;;17.55;12.20;;;0.70;99.90;;;;;;5050771;28;20216;-72
2020/12/03 06:21:48;;;;;;;18.85;11.60;;;0.60;99.90;;;;;;5050631;28;20220;-72
2020/12/03 06:24:44;;;;;;;18.50;11.88;;;0.60;99.90;;;;;;5050626;28;20703;-72
2020/12/03 06:27:46;;;;;;;18.75;11.73;;;0.70;99.90;;;;;;5050553;28;20208;-72
2020/12/03 06:30:21;;;;;;;15.65;10.65;;;0.70;99.90;;;;;;5050827;28;20219;-72
2020/12/03 06:33:17;;;;;;;15.40;11.20;;;0.60;99.90;;;;;;5049838;28;20889;-72
2020/12/03 06:35:49;;;;;;;19.73;12.07;;;0.70;99.90;;;;;;5030236;28;20201;-72
2020/12/03 06:38:21;;;;;;;20.45;11.75;;;0.70;99.90;;;;;;5050580;28;20205;-72
2020/12/03 06:40:57;;;;;;;18.08;12.60;;;0.60;99.90;;;;;;5049932;28;20225;-70
2020/12/03 06:43:30;;;;;;;18.42;11.07;;;0.60;99.90;;;;;;5050262;28;20235;-71
2020/12/03 06:46:44;;;;;;;16.42;12.55;;;0.60;99.90;;;;;;5052637;28;20196;-72
2020/12/03 06:49:49;;;;;;;17.35;10.80;;;0.60;99.90;;;;;;5058018;28;20687;-72
2020/12/03 06:52:41;;;;;;;17.08;11.60;;;0.70;99.90;;;;;;5049262;28;20221;-70
2020/12/03 06:55:31;;;;;;;15.68;11.88;;;0.70;99.90;;;;;;5050213;28;20211;-71
2020/12/03 06:58:40;;;;;;;15.48;10.82;;;0.70;99.90;;;;;;5049956;28;20212;-73
2020/12/03 07:01:42;;;;;;;17.25;11.88;;;0.60;99.90;;;;;;5009089;28;20229;-72
2020/12/03 07:04:42;;;;;;;18.25;12.73;;;0.60;99.90;;;;;;5035993;28;20275;-72
2020/12/03 07:07:41;;;;;;;18.02;11.50;;;0.70;99.90;;;;;;5049606;28;20212;-72
2020/12/03 07:10:42;;;;;;;18.83;11.20;;;0.70;99.90;;;;;;5032505;28;20212;-71
2020/12/03 07:13:35;;;;;;;15.07;10.98;;;0.70;99.90;;;;;;5048987;28;20235;-72
2020/12/03 07:16:27;;;;;;;16.70;12.10;;;0.70;99.90;;;;;;5049536;28;20208;-72
2020/12/03 07:19:37;;;;;;;14.68;10.60;;;0.70;99.90;;;;;;5049399;28;20248;-72
2020/12/03 07:22:12;;;;;;;16.10;10.57;;;0.70;99.90;;;;;;5048997;28;20426;-72
2020/12/03 07:24:41;;;;;;;17.25;10.57;;;0.70;99.90;;;;;;5049333;28;20208;-72
2020/12/03 07:27:53;;;;;;;15.52;11.07;;;0.70;99.90;;;;;;5049521;28;20231;-72
2020/12/03 07:30:35;;;;;;;14.95;9.00;;;0.70;99.90;;;;;;5048670;28;20205;-73
2020/12/03 07:33:07;;;;;;;16.50;10.75;;;0.70;99.90;;;;;;5048904;28;20650;-73
2020/12/03 07:35:41;;;;;;;12.48;9.57;;;0.80;99.90;;;;;;5051083;28;20291;-74
2020/12/03 07:38:18;;;;;;;12.77;9.80;;;0.80;99.90;;;;;;5049727;28;20211;-75
2020/12/03 07:40:50;;;;;;;15.80;11.90;;;0.80;99.90;;;;;;5048813;28;20221;-75
2020/12/03 07:43:21;;;;;;;14.75;10.25;;;0.80;99.90;;;;;;5048769;28;20224;-75
2020/12/03 07:45:49;;;;;;;16.92;9.95;;;0.70;99.90;;;;;;5049133;28;20205;-73
2020/12/03 07:48:20;;;;;;;15.90;10.18;;;0.70;99.90;;;;;;5049195;28;20636;-72
2020/12/03 07:51:07;;;;;;;13.80;9.13;;;0.80;99.90;;;;;;5048918;28;20208;-72
2020/12/03 07:53:35;;;;;;;11.23;8.27;;;0.80;99.90;;;;;;5061819;28;20580;-72
2020/12/03 07:56:36;;;;;;;12.20;9.00;;;0.90;99.90;;;;;;5063868;28;20204;-75
2020/12/03 07:59:40;;;;;;;12.20;9.70;;;0.90;99.90;;;;;;5062331;28;20197;-74
2020/12/03 08:02:46;;;;;;;14.85;9.32;;;1.00;99.90;;;;;;5077063;28;20272;-74
2020/12/03 08:05:50;;;;;;;11.23;8.57;;;1.00;99.90;;;;;;5064963;28;20200;-72
2020/12/03 08:08:32;;;;;;;12.35;9.18;;;1.00;99.90;;;;;;5085531;28;20750;-72
2020/12/03 08:10:59;;;;;;;12.43;8.50;;;1.00;99.90;;;;;;5087281;28;20203;-73
2020/12/03 08:13:29;;;;;;;10.70;8.13;;;0.90;99.90;;;;;;5080873;28;20224;-72
2020/12/03 08:16:00;;;;;;;13.35;7.95;;;0.80;99.90;;;;;;5068291;28;20608;-72
2020/12/03 08:18:35;;;;;;;10.43;7.93;;;0.80;99.90;;;;;;5067957;28;20295;-75
2020/12/03 08:21:01;;;;;;;12.18;8.45;;;0.80;99.90;;;;;;5068439;28;20227;-75
2020/12/03 08:23:28;;;;;;;12.82;9.48;;;0.70;99.90;;;;;;5068601;28;20248;-74
2020/12/03 08:25:54;;;;;;;12.63;8.80;;;0.80;99.90;;;;;;5068542;28;20231;-73
2020/12/03 08:28:25;;;;;;;13.07;8.90;;;0.80;99.90;;;;;;5068566;28;20201;-73
2020/12/03 08:30:52;;;;;;;11.23;8.25;;;0.80;99.90;;;;;;5068245;28;20878;-74
2020/12/03 08:33:26;;;;;;;15.02;9.32;;;0.80;99.90;;;;;;5067692;28;20248;-74
2020/12/03 08:35:55;;;;;;;12.32;8.52;;;0.80;99.90;;;;;;5068121;28;20207;-74
2020/12/03 08:38:24;;;;;;;16.67;8.80;;;0.80;99.90;;;;;;5068481;28;20307;-74
2020/12/03 08:40:51;;;;;;;11.48;8.73;;;0.90;99.90;;;;;;5067835;28;20715;-74
2020/12/03 08:43:18;;;;;;;13.82;8.93;;;0.80;99.90;;;;;;5067936;28;20590;-74
2020/12/03 08:45:50;;;;;;;13.07;9.10;;;0.80;99.90;;;;;;5067552;28;20208;-73
2020/12/03 08:48:23;;;;;;;10.90;8.82;;;0.90;99.90;;;;;;5067898;28;20254;-74
2020/12/03 08:50:58;;;;;;;12.45;9.98;;;0.90;99.90;;;;;;5067386;28;20203;-74
2020/12/03 08:53:27;;;;;;;13.70;9.77;;;0.90;99.90;;;;;;5067511;28;20273;-74
2020/12/03 08:55:53;;;;;;;11.50;9.18;;;0.90;99.90;;;;;;5067914;28;20257;-74
2020/12/03 08:58:23;;;;;;;13.18;10.02;;;0.90;99.90;;;;;;5067280;28;20204;-73
2020/12/03 09:00:53;;;;;;;11.73;9.13;;;0.90;99.90;;;;;;5067115;28;20231;-73
2020/12/03 09:03:22;;;;;;;14.50;10.15;;;1.00;99.90;;;;;;5067511;28;20256;-74
2020/12/03 09:05:50;;;;;;;13.57;9.52;;;1.10;99.90;;;;;;5067353;28;20303;-73
2020/12/03 09:08:20;;;;;;;13.93;9.98;;;1.10;99.90;;;;;;5068089;28;20265;-73
2020/12/03 09:10:49;;;;;;;13.23;9.98;;;1.10;99.90;;;;;;5067201;28;20614;-73
2020/12/03 09:13:18;;;;;;;10.98;8.77;;;1.10;99.90;;;;;;5067281;28;20243;-73
2020/12/03 09:15:46;;;;;;;14.05;9.85;;;1.10;99.90;;;;;;5067094;28;20254;-74
2020/12/03 09:18:13;;;;;;;13.73;10.65;;;1.10;99.90;;;;;;5067697;28;20721;-74
2020/12/03 09:20:44;;;;;;;13.57;9.50;;;1.10;99.90;;;;;;5067408;28;20225;-73
2020/12/03 09:23:26;;;;;;;13.80;10.05;;;1.10;99.90;;;;;;5066762;28;20228;-73
2020/12/03 09:25:52;;;;;;;13.98;9.98;;;1.10;99.90;;;;;;5067513;28;20204;-74
2020/12/03 09:28:19;;;;;;;17.70;10.63;;;1.10;99.90;;;;;;5067157;28;20894;-74
2020/12/03 09:30:47;;;;;;;14.43;10.00;;;1.10;99.90;;;;;;5069898;28;20201;-74
2020/12/03 09:33:17;;;;;;;14.32;11.30;;;1.10;99.90;;;;;;5070245;28;20220;-74
2020/12/03 09:35:50;;;;;;;14.35;9.95;;;1.20;99.90;;;;;;5070123;28;20253;-74
2020/12/03 09:38:17;;;;;;;15.15;10.55;;;1.20;99.90;;;;;;5071195;28;20224;-74
2020/12/03 09:40:47;;;;;;;14.65;9.70;;;1.30;99.90;;;;;;5070634;28;20220;-74
2020/12/03 09:43:18;;;;;;;14.80;10.23;;;1.30;99.90;;;;;;5070734;28;20220;-74
2020/12/03 09:45:48;;;;;;;12.48;9.70;;;1.30;99.90;;;;;;5070317;28;20296;-73
2020/12/03 09:48:17;;;;;;;11.85;8.45;;;1.30;99.90;;;;;;5070263;28;20196;-73
2020/12/03 09:50:46;;;;;;;11.93;9.85;;;1.30;99.90;;;;;;5070326;28;20197;-73
2020/12/03 09:53:15;;;;;;;13.93;10.48;;;1.40;99.90;;;;;;5068592;28;20587;-74
2020/12/03 09:55:41;;;;;;;12.10;8.95;;;1.40;99.90;;;;;;5069995;28;20214;-74
2020/12/03 09:58:08;;;;;;;11.27;8.93;;;1.40;99.90;;;;;;5069758;28;20211;-72
2020/12/03 10:00:38;;;;;;;13.73;10.25;;;1.40;99.90;;;;;;5069537;28;20544;-73
2020/12/03 10:03:48;;;;;;;11.40;8.68;;;1.40;99.90;;;;;;5070029;28;20238;-73
2020/12/03 10:06:24;;;;;;;14.48;9.52;;;1.40;99.90;;;;;;5013421;28;20210;-73
2020/12/03 10:09:28;;;;;;;11.75;9.02;;;1.40;99.90;;;;;;5070753;28;20628;-73
2020/12/03 10:12:25;;;;;;;10.57;8.90;;;1.60;99.90;;;;;;5069347;28;20609;-74
2020/12/03 10:15:24;;;;;;;12.57;8.90;;;1.80;99.90;;;;;;5070325;28;20208;-74
2020/12/03 10:18:09;;;;;;;11.95;8.82;;;1.80;99.90;;;;;;5069934;28;20204;-74
2020/12/03 10:20:37;;;;;;;12.18;8.35;;;1.90;99.90;;;;;;5069671;28;20231;-73
2020/12/03 10:23:48;;;;;;;12.30;8.98;;;1.90;99.90;;;;;;5069906;28;20574;-73
2020/12/03 10:26:32;;;;;;;12.77;8.82;;;1.90;99.90;;;;;;5008591;28;20667;-74
2020/12/03 10:29:29;;;;;;;12.00;8.05;;;2.00;99.90;;;;;;5062938;28;20207;-74
2020/12/03 10:31:57;;;;;;;11.57;8.82;;;2.00;99.90;;;;;;5066842;28;20248;-74
2020/12/03 10:34:23;;;;;;;11.77;7.90;;;2.00;99.90;;;;;;5070006;28;20573;-74
2020/12/03 10:36:54;;;;;;;11.70;8.63;;;2.00;99.90;;;;;;5069435;28;20228;-73
2020/12/03 10:39:28;;;;;;;11.73;8.00;;;2.10;99.90;;;;;;5070387;28;20200;-72
2020/12/03 10:41:55;;;;;;;10.18;7.75;;;2.20;99.90;;;;;;5128237;22;20229;-76
2020/12/03 10:44:26;;;;;;;11.45;8.50;;;2.20;99.90;;;;;;5050251;28;20205;-75
2020/12/03 10:46:57;;;;;;;10.48;8.00;;;2.20;99.90;;;;;;5053286;28;20209;-75
2020/12/03 10:49:26;;;;;;;10.13;8.40;;;2.10;99.90;;;;;;5051603;28;20204;-73
2020/12/03 10:51:53;;;;;;;12.68;8.50;;;2.00;99.90;;;;;;5052151;28;20225;-75
2020/12/03 10:54:20;;;;;;;10.15;7.20;;;2.00;99.90;;;;;;5051693;28;20205;-74
2020/12/03 10:56:50;;;;;;;9.43;7.15;;;2.10;99.90;;;;;;5051431;28;20679;-75
2020/12/03 10:59:38;;;;;;;12.15;8.88;;;2.10;99.90;;;;;;5050765;28;20201;-75
2020/12/03 11:02:16;;;;;;;9.05;6.97;;;2.10;99.90;;;;;;5049348;28;20290;-75
2020/12/03 11:04:43;;;;;;;10.00;7.20;;;2.10;99.90;;;;;;5050758;28;20223;-75
2020/12/03 11:07:12;;;;;;;8.13;6.82;;;2.20;99.90;;;;;;5050219;28;20291;-76
2020/12/03 11:09:39;;;;;;;8.45;6.82;;;2.20;99.90;;;;;;5051646;28;20197;-76
2020/12/03 11:12:10;;;;;;;10.45;6.88;;;2.20;99.90;;;;;;5062462;28;20216;-75
2020/12/03 11:14:37;;;;;;;11.65;7.45;;;2.30;99.90;;;;;;5070191;28;20205;-76
2020/12/03 11:17:12;;;;;;;8.82;6.53;;;2.20;99.90;;;;;;5070998;28;20204;-76
2020/12/03 11:19:41;;;;;;;8.98;6.75;;;2.10;99.90;;;;;;5069947;28;20202;-75
2020/12/03 11:22:26;;;;;;;11.02;6.57;;;2.00;99.90;;;;;;5069889;28;20323;-75
2020/12/03 11:25:00;;;;;;;9.27;6.97;;;2.00;99.90;;;;;;5070905;28;20208;-76
2020/12/03 11:27:28;;;;;;;11.13;6.70;;;2.00;99.90;;;;;;5049945;28;20201;-76
2020/12/03 11:29:55;;;;;;;11.57;6.90;;;2.00;99.90;;;;;;5050529;28;20668;-76
2020/12/03 11:32:22;;;;;;;9.85;6.45;;;2.00;99.90;;;;;;5049663;28;20217;-76
2020/12/03 11:34:48;;;;;;;8.00;6.25;;;2.00;99.90;;;;;;5050872;28;20201;-77
2020/12/03 11:37:21;;;;;;;7.97;6.32;;;2.00;99.90;;;;;;5050161;28;20204;-76
2020/12/03 11:39:48;;;;;;;7.80;6.00;;;2.10;99.90;;;;;;5050945;28;20201;-73
2020/12/03 11:42:25;;;;;;;8.88;6.53;;;2.10;99.90;;;;;;5051609;28;20221;-76
2020/12/03 11:45:21;;;;;;;8.43;5.95;;;2.10;99.90;;;;;;5052794;28;20262;-76
2020/12/03 11:48:07;;;;;;;7.05;5.53;;;2.10;99.90;;;;;;5053342;28;20208;-76
2020/12/03 11:50:37;;;;;;;9.85;6.03;;;2.20;99.90;;;;;;5053269;28;20251;-73
2020/12/03 11:53:05;;;;;;;8.55;6.60;;;2.20;99.90;;;;;;5052133;28;20225;-75
2020/12/03 11:55:36;;;;;;;9.13;6.43;;;2.20;99.90;;;;;;5052595;28;20216;-75
2020/12/03 11:58:06;;;;;;;9.43;6.03;;;2.20;99.90;;;;;;5049940;28;20231;-75
2020/12/03 12:00:33;;;;;;;9.48;6.85;;;2.10;99.90;;;;;;5048471;28;20668;-75
2020/12/03 12:03:03;;;;;;;10.07;6.38;;;2.10;99.90;;;;;;5056550;28;20722;-75
2020/12/03 12:05:37;;;;;;;11.02;6.38;;;2.00;99.90;;;;;;5056436;28;20200;-75
2020/12/03 12:08:15;;;;;;;9.88;6.28;;;2.00;99.90;;;;;;5062442;28;20197;-75
2020/12/03 12:10:45;;;;;;;7.15;5.90;;;2.00;99.90;;;;;;5065607;28;20690;-75
2020/12/03 12:13:14;;;;;;;8.70;6.45;;;1.90;99.90;;;;;;5059602;28;20299;-74
2020/12/03 12:15:41;;;;;;;8.75;6.25;;;2.00;99.90;;;;;;5059672;28;20644;-76
2020/12/03 12:18:07;;;;;;;8.15;6.70;;;2.00;99.90;;;;;;5058780;28;20285;-76
2020/12/03 12:20:34;;;;;;;8.23;6.28;;;2.10;99.90;;;;;;5058867;28;20192;-76
2020/12/03 12:23:00;;;;;;;8.65;6.13;;;2.10;99.90;;;;;;5059000;28;20221;-73
2020/12/03 12:25:26;;;;;;;8.48;6.10;;;2.20;99.90;;;;;;5058019;28;20193;-76
2020/12/03 12:27:53;;;;;;;9.93;7.03;;;2.20;99.90;;;;;;5057142;28;20193;-75
2020/12/03 12:30:19;;;;;;;7.78;6.18;;;2.20;99.90;;;;;;5056510;28;20695;-75
2020/12/03 12:32:46;;;;;;;8.77;5.97;;;2.20;99.90;;;;;;5056586;28;20205;-75
2020/12/03 12:35:12;;;;;;;8.98;6.22;;;2.10;99.90;;;;;;5060169;28;20196;-74
2020/12/03 12:37:39;;;;;;;7.70;5.85;;;2.20;99.90;;;;;;5058641;28;20612;-74
2020/12/03 12:40:05;;;;;;;8.98;6.25;;;2.20;99.90;;;;;;5056895;28;20215;-75
2020/12/03 12:42:32;;;;;;;9.18;6.00;;;2.20;99.90;;;;;;5057577;28;20231;-75
2020/12/03 12:44:58;;;;;;;11.10;5.85;;;2.20;99.90;;;;;;5059175;28;20197;-76
2020/12/03 12:47:25;;;;;;;8.50;6.10;;;2.20;99.90;;;;;;5057271;28;20212;-76
2020/12/03 12:49:52;;;;;;;7.45;5.10;;;2.20;99.90;;;;;;5059514;28;20204;-74
2020/12/03 12:52:18;;;;;;;9.20;5.82;;;2.20;99.90;;;;;;5057656;28;20392;-74
2020/12/03 12:54:45;;;;;;;6.88;5.60;;;2.20;99.90;;;;;;5057060;28;20211;-75
2020/12/03 12:57:11;;;;;;;9.10;6.38;;;2.20;99.90;;;;;;5059493;28;20200;-73
2020/12/03 12:59:37;;;;;;;9.02;6.20;;;2.30;99.90;;;;;;5058305;28;20193;-75
2020/12/03 13:02:04;;;;;;;6.88;5.70;;;2.40;99.90;;;;;;5056797;28;20235;-73
2020/12/03 13:04:30;;;;;;;6.72;6.03;;;2.40;99.90;;;;;;5059831;28;20200;-74
2020/12/03 13:06:57;;;;;;;7.43;5.68;;;2.40;99.90;;;;;;5050669;28;20197;-74